createdAt,value
2018-01-26T00:01:06.890Z,87.24
2018-01-26T00:03:35.307Z,87.61
2018-01-26T00:06:03.887Z,87.55
2018-01-26T00:08:32.265Z,87.57
2018-01-26T00:11:00.684Z,87.67
2018-01-26T00:13:29.102Z,88.18
2018-01-26T00:15:57.482Z,87.93
2018-01-26T00:18:25.866Z,88.06
2018-01-26T00:20:54.382Z,88.27
2018-01-26T00:23:22.870Z,88.77
2018-01-26T00:25:51.310Z,88.59
2018-01-26T00:28:19.750Z,88.33
2018-01-26T00:30:48.179Z,87.98
2018-01-26T00:33:16.573Z,87.71
2018-01-26T00:35:45.089Z,87.66
2018-01-26T00:38:13.503Z,87.73
2018-01-26T00:40:41.892Z,88.31
2018-01-26T00:43:10.324Z,88.46
2018-01-26T00:45:38.715Z,88.42
2018-01-26T00:48:07.089Z,88.65
2018-01-26T00:50:35.628Z,88.53
2018-01-26T00:53:04.012Z,88.27
2018-01-26T00:55:32.457Z,88.30
2018-01-26T00:58:00.927Z,88.16
2018-01-26T01:00:29.421Z,88.02
2018-01-26T01:02:57.814Z,87.91
2018-01-26T01:05:26.293Z,87.68
2018-01-26T01:07:54.677Z,87.88
2018-01-26T01:10:23.086Z,87.50
2018-01-26T01:12:51.560Z,87.57
2018-01-26T01:15:19.959Z,87.45
2018-01-26T01:17:48.349Z,87.64
2018-01-26T01:20:16.792Z,87.60
2018-01-26T01:22:45.185Z,87.43
2018-01-26T01:25:13.562Z,87.44
2018-01-26T01:27:41.984Z,87.16
2018-01-26T01:30:10.359Z,87.32
2018-01-26T01:32:38.731Z,87.17
2018-01-26T01:35:07.145Z,87.06
2018-01-26T01:37:35.514Z,87.06
2018-01-26T01:40:03.921Z,87.13
2018-01-26T01:42:32.344Z,86.97
2018-01-26T01:45:00.730Z,87.00
2018-01-26T01:47:29.107Z,86.68
2018-01-26T01:49:57.743Z,86.99
2018-01-26T01:52:26.150Z,87.17
2018-01-26T01:54:54.530Z,86.85
2018-01-26T01:57:22.948Z,86.99
2018-01-26T01:59:51.369Z,87.08
2018-01-26T02:02:19.740Z,87.30
2018-01-26T02:04:48.165Z,87.24
2018-01-26T02:07:16.567Z,87.25
2018-01-26T02:09:44.945Z,87.09
2018-01-26T02:12:13.400Z,87.13
2018-01-26T02:14:41.819Z,87.10
2018-01-26T02:17:10.302Z,87.02
2018-01-26T02:19:38.864Z,87.00
2018-01-26T02:22:07.247Z,87.31
2018-01-26T02:24:35.651Z,87.24
2018-01-26T02:27:04.078Z,87.17
2018-01-26T02:29:32.444Z,87.13
2018-01-26T02:32:00.831Z,87.34
2018-01-26T02:34:29.246Z,87.19
2018-01-26T02:36:57.631Z,87.06
2018-01-26T02:39:26.014Z,87.26
2018-01-26T02:41:54.441Z,87.02
2018-01-26T02:44:22.836Z,87.02
2018-01-26T02:46:51.210Z,86.90
2018-01-26T02:49:19.637Z,86.94
2018-01-26T02:51:48.036Z,86.95
2018-01-26T02:54:16.495Z,87.03
2018-01-26T02:56:45.102Z,87.10
2018-01-26T02:59:13.501Z,87.38
2018-01-26T03:01:41.898Z,87.21
2018-01-26T03:04:10.327Z,87.18
2018-01-26T03:06:38.710Z,87.01
2018-01-26T03:09:07.206Z,87.03
2018-01-26T03:11:35.680Z,87.02
2018-01-26T03:14:04.112Z,87.12
2018-01-26T03:16:32.509Z,87.04
2018-01-26T03:19:00.948Z,86.92
2018-01-26T03:21:29.344Z,87.04
2018-01-26T03:23:57.731Z,87.41
2018-01-26T03:26:26.163Z,87.18
2018-01-26T03:28:54.543Z,87.05
2018-01-26T03:31:22.914Z,87.18
2018-01-26T03:33:51.364Z,87.49
2018-01-26T03:36:19.744Z,87.50
2018-01-26T03:38:48.110Z,87.37
2018-01-26T03:41:16.536Z,87.22
2018-01-26T03:43:44.914Z,87.10
2018-01-26T03:46:13.285Z,87.32
2018-01-26T03:48:41.720Z,87.36
2018-01-26T03:51:10.089Z,87.45
2018-01-26T03:53:38.456Z,87.37
2018-01-26T03:56:06.886Z,87.55
2018-01-26T03:58:35.287Z,87.39
2018-01-26T04:01:03.679Z,87.67
2018-01-26T04:03:32.136Z,87.48
2018-01-26T04:06:00.514Z,87.44
2018-01-26T04:08:28.906Z,87.45
2018-01-26T04:10:57.333Z,87.34
2018-01-26T04:13:25.722Z,87.65
2018-01-26T04:15:54.112Z,87.50
2018-01-26T04:18:22.526Z,87.52
2018-01-26T04:20:50.914Z,87.44
2018-01-26T04:23:19.289Z,87.70
2018-01-26T04:25:47.728Z,87.55
2018-01-26T04:28:16.122Z,87.66
2018-01-26T04:30:44.549Z,87.75
2018-01-26T04:33:12.969Z,87.75
2018-01-26T04:35:41.341Z,87.77
2018-01-26T04:38:09.736Z,87.64
2018-01-26T04:40:38.144Z,87.73
2018-01-26T04:43:06.545Z,87.57
2018-01-26T04:45:34.940Z,87.30
2018-01-26T04:48:03.392Z,87.95
2018-01-26T04:50:31.818Z,87.51
2018-01-26T04:53:00.220Z,87.46
2018-01-26T04:55:28.653Z,87.72
2018-01-26T04:57:57.059Z,87.71
2018-01-26T05:00:25.496Z,87.82
2018-01-26T05:02:53.933Z,87.71
2018-01-26T05:05:22.324Z,87.66
2018-01-26T05:07:50.694Z,87.67
2018-01-26T05:10:19.125Z,87.61
2018-01-26T05:12:47.516Z,87.47
2018-01-26T05:15:15.901Z,87.39
2018-01-26T05:17:44.352Z,87.28
2018-01-26T05:20:12.733Z,87.25
2018-01-26T05:22:41.132Z,87.45
2018-01-26T05:25:09.562Z,87.25
2018-01-26T05:27:37.969Z,87.19
2018-01-26T05:30:06.354Z,87.42
2018-01-26T05:32:34.792Z,87.44
2018-01-26T05:35:03.207Z,87.49
2018-01-26T05:37:31.594Z,87.50
2018-01-26T05:40:00.040Z,87.57
2018-01-26T05:42:28.444Z,87.44
2018-01-26T05:44:56.839Z,87.47
2018-01-26T05:47:25.304Z,87.43
2018-01-26T05:49:53.692Z,87.35
2018-01-26T05:52:22.093Z,87.46
2018-01-26T05:54:50.709Z,87.53
2018-01-26T05:57:19.113Z,87.46
2018-01-26T05:59:47.524Z,87.62
2018-01-26T06:02:15.998Z,87.59
2018-01-26T06:04:44.415Z,87.70
2018-01-26T06:07:12.813Z,87.68
2018-01-26T06:09:41.269Z,87.56
2018-01-26T06:12:09.733Z,87.64
2018-01-26T06:14:38.129Z,87.67
2018-01-26T06:17:06.593Z,87.65
2018-01-26T06:19:34.998Z,87.57
2018-01-26T06:22:03.413Z,87.76
2018-01-26T06:24:31.892Z,87.80
2018-01-26T06:27:00.317Z,87.82
2018-01-26T06:29:28.738Z,87.72
2018-01-26T06:31:57.160Z,87.75
2018-01-26T06:34:25.565Z,87.44
2018-01-26T06:36:53.970Z,87.40
2018-01-26T06:39:22.436Z,87.50
2018-01-26T06:41:50.853Z,87.48
2018-01-26T06:44:19.250Z,87.95
2018-01-26T06:46:47.688Z,87.96
2018-01-26T06:49:16.092Z,87.87
2018-01-26T06:51:44.502Z,87.89
2018-01-26T06:54:12.973Z,87.87
2018-01-26T06:56:41.361Z,88.31
2018-01-26T06:59:09.741Z,88.47
2018-01-26T07:01:38.194Z,88.28
2018-01-26T07:04:06.584Z,88.53
2018-01-26T07:06:34.985Z,88.87
2018-01-26T07:09:03.481Z,88.60
2018-01-26T07:11:31.936Z,88.43
2018-01-26T07:14:00.320Z,88.31
2018-01-26T07:16:28.752Z,88.35
2018-01-26T07:18:57.133Z,88.16
2018-01-26T07:21:25.524Z,88.18
2018-01-26T07:23:53.972Z,88.66
2018-01-26T07:26:22.346Z,88.68
2018-01-26T07:28:50.725Z,88.69
2018-01-26T07:31:19.161Z,88.49
2018-01-26T07:33:47.550Z,88.29
2018-01-26T07:36:15.929Z,88.85
2018-01-26T07:38:44.349Z,88.47
2018-01-26T07:41:12.740Z,88.40
2018-01-26T07:43:41.121Z,88.68
2018-01-26T07:46:09.549Z,88.59
2018-01-26T07:48:37.940Z,88.83
2018-01-26T07:51:06.329Z,88.68
2018-01-26T07:53:34.753Z,88.87
2018-01-26T07:56:03.149Z,88.54
2018-01-26T07:58:31.525Z,88.26
2018-01-26T08:01:00.918Z,88.30
2018-01-26T08:03:29.297Z,88.21
2018-01-26T08:05:57.687Z,87.99
2018-01-26T08:08:26.173Z,88.02
2018-01-26T08:10:54.596Z,87.99
2018-01-26T08:13:22.996Z,87.97
2018-01-26T08:15:51.425Z,88.01
2018-01-26T08:18:19.824Z,87.97
2018-01-26T08:20:48.209Z,88.03
2018-01-26T08:23:16.627Z,88.11
2018-01-26T08:25:45.024Z,87.99
2018-01-26T08:28:13.403Z,88.01
2018-01-26T08:30:41.856Z,88.05
2018-01-26T08:33:10.241Z,87.97
2018-01-26T08:35:38.622Z,87.98
2018-01-26T08:38:07.047Z,88.26
2018-01-26T08:40:35.521Z,87.74
2018-01-26T08:43:04.304Z,88.01
2018-01-26T08:45:32.764Z,88.15
2018-01-26T08:48:01.166Z,88.09
2018-01-26T08:50:29.568Z,88.07
2018-01-26T08:52:58.057Z,88.07
2018-01-26T08:55:26.506Z,88.05
2018-01-26T08:57:54.962Z,88.04
2018-01-26T09:00:23.421Z,87.75
2018-01-26T09:02:51.833Z,86.81
2018-01-26T09:05:20.217Z,86.41
2018-01-26T09:07:48.652Z,86.71
2018-01-26T09:10:17.058Z,87.23
2018-01-26T09:12:45.437Z,86.95
2018-01-26T09:15:13.877Z,86.93
2018-01-26T09:17:42.262Z,87.33
2018-01-26T09:20:10.660Z,87.34
2018-01-26T09:22:39.125Z,86.77
2018-01-26T09:25:07.514Z,86.93
2018-01-26T09:27:35.921Z,86.98
2018-01-26T09:30:04.439Z,86.91
2018-01-26T09:32:32.857Z,86.89
2018-01-26T09:35:01.257Z,86.81
2018-01-26T09:37:29.708Z,86.95
2018-01-26T09:39:58.093Z,86.86
2018-01-26T09:42:26.514Z,86.92
2018-01-26T09:44:54.946Z,86.96
2018-01-26T09:47:23.330Z,86.96
2018-01-26T09:49:51.741Z,87.15
2018-01-26T09:52:20.165Z,87.10
2018-01-26T09:54:48.566Z,86.78
2018-01-26T09:57:16.961Z,86.35
2018-01-26T09:59:45.417Z,85.84
2018-01-26T10:02:13.832Z,85.44
2018-01-26T10:04:42.255Z,84.48
2018-01-26T10:07:10.705Z,84.77
2018-01-26T10:09:39.120Z,84.14
2018-01-26T10:12:07.532Z,83.51
2018-01-26T10:14:35.996Z,83.28
2018-01-26T10:17:04.387Z,82.88
2018-01-26T10:19:32.790Z,83.23
2018-01-26T10:22:01.238Z,82.88
2018-01-26T10:24:29.648Z,82.63
2018-01-26T10:26:58.048Z,81.86
2018-01-26T10:29:26.489Z,82.52
2018-01-26T10:31:54.877Z,82.94
2018-01-26T10:34:23.284Z,83.31
2018-01-26T10:36:51.753Z,83.64
2018-01-26T10:39:20.161Z,83.91
2018-01-26T10:41:48.577Z,83.93
2018-01-26T10:44:17.098Z,83.98
2018-01-26T10:46:45.466Z,84.00
2018-01-26T10:49:13.876Z,83.80
2018-01-26T10:51:42.340Z,83.47
2018-01-26T10:54:10.736Z,83.74
2018-01-26T10:56:39.144Z,84.04
2018-01-26T10:59:07.592Z,84.40
2018-01-26T11:01:36.004Z,84.61
2018-01-26T11:04:04.405Z,84.76
2018-01-26T11:06:32.856Z,84.83
2018-01-26T11:09:01.276Z,85.01
2018-01-26T11:11:29.685Z,85.21
2018-01-26T11:13:58.123Z,85.36
2018-01-26T11:16:26.517Z,84.79
2018-01-26T11:18:54.909Z,85.00
2018-01-26T11:21:23.376Z,85.21
2018-01-26T11:23:51.774Z,84.49
2018-01-26T11:26:20.188Z,83.67
2018-01-26T11:28:48.623Z,83.54
2018-01-26T11:31:17.022Z,81.44
2018-01-26T11:33:45.414Z,80.77
2018-01-26T11:36:13.865Z,80.85
2018-01-26T11:38:42.270Z,80.83
2018-01-26T11:41:10.677Z,80.47
2018-01-26T11:43:39.128Z,80.15
2018-01-26T11:46:07.560Z,80.77
2018-01-26T11:48:35.972Z,80.92
2018-01-26T11:51:04.438Z,81.26
2018-01-26T11:53:32.835Z,79.85
2018-01-26T11:56:01.224Z,80.61
2018-01-26T11:58:29.678Z,80.67
2018-01-26T12:00:58.107Z,81.21
2018-01-26T12:03:26.528Z,80.92
2018-01-26T12:05:54.977Z,81.51
2018-01-26T12:08:23.387Z,81.50
2018-01-26T12:10:51.778Z,80.73
2018-01-26T12:13:20.222Z,80.80
2018-01-26T12:15:48.645Z,79.94
2018-01-26T12:18:17.033Z,79.33
2018-01-26T12:20:45.457Z,79.55
2018-01-26T12:23:13.866Z,78.99
2018-01-26T12:25:42.318Z,79.64
2018-01-26T12:28:10.818Z,80.01
2018-01-26T12:30:39.263Z,79.54
2018-01-26T12:33:07.664Z,79.95
2018-01-26T12:35:36.106Z,79.81
2018-01-26T12:38:04.522Z,80.15
2018-01-26T12:40:32.936Z,80.77
2018-01-26T12:43:01.404Z,80.70
2018-01-26T12:45:29.826Z,80.67
2018-01-26T12:47:58.254Z,80.83
2018-01-26T12:50:26.702Z,81.39
2018-01-26T12:52:55.138Z,81.23
2018-01-26T12:55:23.561Z,80.16
2018-01-26T12:57:52.012Z,79.82
2018-01-26T13:00:20.438Z,80.25
2018-01-26T13:02:48.833Z,80.57
2018-01-26T13:05:17.305Z,80.17
2018-01-26T13:07:45.712Z,80.89
2018-01-26T13:10:14.140Z,80.17
2018-01-26T13:12:42.602Z,79.27
2018-01-26T13:15:11.817Z,79.50
2018-01-26T13:17:40.205Z,80.26
2018-01-26T13:20:08.692Z,79.85
2018-01-26T13:22:37.108Z,79.89
2018-01-26T13:25:05.521Z,80.26
2018-01-26T13:27:33.975Z,80.63
2018-01-26T13:30:02.392Z,80.87
2018-01-26T13:32:30.785Z,80.45
2018-01-26T13:34:59.244Z,80.27
2018-01-26T13:37:27.637Z,80.39
2018-01-26T13:39:56.054Z,80.30
2018-01-26T13:42:24.548Z,80.22
2018-01-26T13:44:52.961Z,80.34
2018-01-26T13:47:21.355Z,80.14
2018-01-26T13:49:49.791Z,80.40
2018-01-26T13:52:18.213Z,80.01
2018-01-26T13:54:46.613Z,80.61
2018-01-26T13:57:15.089Z,80.12
2018-01-26T13:59:43.521Z,80.32
2018-01-26T14:02:11.950Z,80.70
2018-01-26T14:04:40.390Z,80.75
2018-01-26T14:07:08.796Z,80.93
2018-01-26T14:09:37.198Z,80.28
2018-01-26T14:12:05.637Z,80.38
2018-01-26T14:14:34.055Z,80.34
2018-01-26T14:17:02.469Z,80.13
2018-01-26T14:19:31.150Z,80.25
2018-01-26T14:21:59.578Z,80.07
2018-01-26T14:24:27.993Z,79.63
2018-01-26T14:26:56.643Z,79.68
2018-01-26T14:29:25.062Z,79.95
2018-01-26T14:31:53.466Z,80.20
2018-01-26T14:34:21.954Z,80.50
2018-01-26T14:36:50.350Z,80.63
2018-01-26T14:39:18.746Z,80.43
2018-01-26T14:41:47.205Z,80.91
2018-01-26T14:44:15.620Z,79.59
2018-01-26T14:46:44.020Z,79.44
2018-01-26T14:49:12.486Z,79.65
2018-01-26T14:51:40.889Z,79.34
2018-01-26T14:54:09.300Z,79.11
2018-01-26T14:56:37.725Z,79.47
2018-01-26T14:59:06.141Z,79.45
2018-01-26T15:01:34.553Z,79.92
2018-01-26T15:04:03.065Z,80.10
2018-01-26T15:06:31.481Z,79.76
2018-01-26T15:09:00.052Z,80.02
2018-01-26T15:11:28.790Z,80.44
2018-01-26T15:13:57.186Z,79.95
2018-01-26T15:16:25.593Z,80.39
2018-01-26T15:18:54.032Z,80.35
2018-01-26T15:21:22.435Z,80.26
2018-01-26T15:23:50.881Z,80.45
2018-01-26T15:26:19.333Z,80.62
2018-01-26T15:28:47.766Z,81.09
2018-01-26T15:31:16.159Z,81.20
2018-01-26T15:33:44.629Z,81.12
2018-01-26T15:36:13.031Z,81.03
2018-01-26T15:38:41.445Z,80.85
2018-01-26T15:41:09.919Z,80.79
2018-01-26T15:43:38.346Z,80.71
2018-01-26T15:46:06.756Z,81.14
2018-01-26T15:48:35.208Z,81.20
2018-01-26T15:51:03.613Z,81.29
2018-01-26T15:53:32.043Z,81.53
2018-01-26T15:56:00.482Z,81.74
2018-01-26T15:58:28.903Z,81.80
2018-01-26T16:00:57.316Z,81.34
2018-01-26T16:03:25.765Z,81.84
2018-01-26T16:05:54.167Z,81.53
2018-01-26T16:08:22.609Z,81.57
2018-01-26T16:10:51.049Z,81.78
2018-01-26T16:13:19.446Z,81.44
2018-01-26T16:15:59.585Z,81.75
2018-01-26T16:18:27.975Z,81.88
2018-01-26T16:20:56.373Z,82.37
2018-01-26T16:23:24.831Z,82.21
2018-01-26T16:25:53.226Z,82.22
2018-01-26T16:28:21.613Z,82.27
2018-01-26T16:30:50.078Z,82.34
2018-01-26T16:33:18.507Z,82.15
2018-01-26T16:35:46.906Z,82.43
2018-01-26T16:38:15.334Z,82.04
2018-01-26T16:40:43.748Z,82.26
2018-01-26T16:43:12.177Z,82.36
2018-01-26T16:45:40.638Z,82.12
2018-01-26T16:48:09.078Z,82.21
2018-01-26T16:50:37.475Z,82.29
2018-01-26T16:53:05.914Z,82.26
2018-01-26T16:55:34.345Z,82.34
2018-01-26T16:58:02.747Z,82.25
2018-01-26T17:00:31.208Z,82.15
2018-01-26T17:02:59.597Z,82.22
2018-01-26T17:05:28.019Z,82.16
2018-01-26T17:07:56.465Z,82.17
2018-01-26T17:10:24.876Z,82.07
2018-01-26T17:12:53.296Z,82.07
2018-01-26T17:15:21.748Z,82.11
2018-01-26T17:17:50.143Z,82.12
2018-01-26T17:20:18.534Z,81.93
2018-01-26T17:22:47.200Z,82.08
2018-01-26T17:25:15.615Z,82.15
2018-01-26T17:27:44.049Z,82.08
2018-01-26T17:30:12.505Z,82.05
2018-01-26T17:32:40.898Z,82.03
2018-01-26T17:35:09.313Z,81.89
2018-01-26T17:37:37.762Z,81.75
2018-01-26T17:40:06.166Z,81.75
2018-01-26T17:42:34.564Z,81.72
2018-01-26T17:45:03.014Z,81.98
2018-01-26T17:47:31.409Z,81.98
2018-01-26T17:49:59.808Z,82.01
2018-01-26T17:52:28.417Z,82.06
2018-01-26T17:54:56.857Z,82.15
2018-01-26T17:57:25.252Z,82.03
2018-01-26T17:59:53.718Z,82.11
2018-01-26T18:02:22.161Z,82.04
2018-01-26T18:04:50.653Z,82.03
2018-01-26T18:07:19.169Z,82.00
2018-01-26T18:09:47.582Z,81.98
2018-01-26T18:12:15.970Z,82.12
2018-01-26T18:14:44.422Z,81.92
2018-01-26T18:17:12.840Z,81.88
2018-01-26T18:19:41.230Z,82.00
2018-01-26T18:22:09.695Z,82.13
2018-01-26T18:24:38.095Z,82.33
2018-01-26T18:27:06.513Z,82.31
2018-01-26T18:29:35.161Z,82.37
2018-01-26T18:32:03.567Z,82.00
2018-01-26T18:34:32.010Z,81.99
2018-01-26T18:37:01.500Z,82.23
2018-01-26T18:39:29.897Z,82.44
2018-01-26T18:41:58.316Z,82.60
2018-01-26T18:44:26.968Z,82.70
2018-01-26T18:46:55.401Z,82.70
2018-01-26T18:49:23.837Z,82.86
2018-01-26T18:51:52.312Z,83.30
2018-01-26T18:54:20.705Z,83.15
2018-01-26T18:56:49.118Z,83.01
2018-01-26T18:59:17.586Z,82.88
2018-01-26T19:01:45.985Z,82.99
2018-01-26T19:04:14.385Z,82.89
2018-01-26T19:06:42.841Z,82.98
2018-01-26T19:09:11.248Z,82.93
2018-01-26T19:11:39.675Z,82.94
2018-01-26T19:14:08.136Z,83.07
2018-01-26T19:16:36.562Z,82.96
2018-01-26T19:19:04.993Z,83.05
2018-01-26T19:21:33.637Z,82.92
2018-01-26T19:24:02.042Z,82.84
2018-01-26T19:26:30.473Z,83.03
2018-01-26T19:28:58.964Z,83.18
2018-01-26T19:31:27.371Z,83.31
2018-01-26T19:33:55.801Z,83.24
2018-01-26T19:36:24.267Z,83.42
2018-01-26T19:38:52.685Z,83.71
2018-01-26T19:41:21.178Z,83.98
2018-01-26T19:43:49.845Z,83.80
2018-01-26T19:46:18.243Z,83.43
2018-01-26T19:48:46.642Z,83.42
2018-01-26T19:51:15.078Z,83.25
2018-01-26T19:53:43.500Z,83.10
2018-01-26T19:56:11.910Z,83.04
2018-01-26T19:58:40.347Z,83.04
2018-01-26T20:01:08.790Z,83.35
2018-01-26T20:03:37.206Z,83.22
2018-01-26T20:09:23.866Z,83.25
2018-01-26T20:11:57.970Z,83.25
2018-01-26T20:14:26.388Z,83.33
2018-01-26T20:16:54.817Z,83.56
2018-01-26T20:19:23.303Z,83.74
2018-01-26T20:21:51.724Z,83.69
2018-01-26T20:24:20.171Z,83.72
2018-01-26T20:26:48.633Z,83.74
2018-01-26T20:29:17.049Z,83.60
2018-01-26T20:31:45.490Z,83.68
2018-01-26T20:34:13.965Z,83.57
2018-01-26T20:36:42.370Z,83.43
2018-01-26T20:39:10.775Z,83.42
2018-01-26T20:41:39.237Z,83.61
2018-01-26T20:44:07.629Z,83.59
2018-01-26T20:46:36.013Z,83.61
2018-01-26T20:49:04.449Z,83.49
2018-01-26T20:51:32.842Z,83.59
2018-01-26T20:54:01.285Z,83.68
2018-01-26T20:56:29.967Z,83.75
2018-01-26T20:58:58.397Z,83.95
2018-01-26T21:01:26.790Z,83.81
2018-01-26T21:03:55.256Z,83.76
2018-01-26T21:06:23.660Z,83.66
2018-01-26T21:08:52.055Z,83.99
2018-01-26T21:11:20.501Z,84.31
2018-01-26T21:13:48.920Z,84.21
2018-01-26T21:16:17.341Z,84.00
2018-01-26T21:18:45.815Z,83.99
2018-01-26T21:21:14.229Z,84.14
2018-01-26T21:23:42.656Z,84.15
2018-01-26T21:26:11.109Z,83.97
2018-01-26T21:28:39.542Z,83.77
2018-01-26T21:31:07.951Z,83.56
2018-01-26T21:33:36.412Z,83.81
2018-01-26T21:36:04.827Z,83.58
2018-01-26T21:38:33.220Z,83.66
2018-01-26T21:41:01.661Z,83.57
2018-01-26T21:43:30.049Z,83.68
2018-01-26T21:45:58.433Z,83.70
2018-01-26T21:48:26.897Z,83.77
2018-01-26T21:50:55.317Z,83.61
2018-01-26T21:53:23.730Z,84.05
2018-01-26T21:55:52.183Z,83.95
2018-01-26T21:58:20.598Z,83.77
2018-01-26T22:00:48.996Z,83.60
2018-01-26T22:03:17.518Z,83.51
2018-01-26T22:05:45.969Z,83.75
2018-01-26T22:08:14.426Z,84.10
2018-01-26T22:10:42.889Z,84.48
2018-01-26T22:13:11.331Z,85.05
2018-01-26T22:15:39.729Z,84.58
2018-01-26T22:18:08.196Z,84.36
2018-01-26T22:20:36.620Z,84.21
2018-01-26T22:23:05.009Z,84.30
2018-01-26T22:25:33.461Z,84.32
2018-01-26T22:28:01.881Z,84.32
2018-01-26T22:30:30.296Z,84.16
2018-01-26T22:32:58.776Z,84.22
2018-01-26T22:35:27.188Z,84.30
2018-01-26T22:37:55.590Z,84.45
2018-01-26T22:40:24.026Z,84.43
2018-01-26T22:42:52.460Z,84.13
2018-01-26T22:45:20.849Z,84.40
2018-01-26T22:47:49.309Z,84.44
2018-01-26T22:50:17.714Z,84.42
2018-01-26T22:52:46.119Z,84.22
2018-01-26T22:55:14.579Z,84.43
2018-01-26T22:57:43.006Z,84.71
2018-01-26T23:00:11.434Z,84.94
2018-01-26T23:02:39.866Z,85.39
2018-01-26T23:05:08.323Z,85.49
2018-01-26T23:07:36.728Z,85.51
2018-01-26T23:10:05.177Z,86.12
2018-01-26T23:12:33.566Z,86.31
2018-01-26T23:15:01.958Z,86.09
2018-01-26T23:17:30.404Z,85.79
2018-01-26T23:19:58.812Z,86.13
2018-01-26T23:22:27.256Z,85.94
2018-01-26T23:24:55.702Z,86.43
2018-01-26T23:27:24.093Z,86.11
2018-01-26T23:29:52.548Z,86.02
2018-01-26T23:32:21.022Z,86.52
2018-01-26T23:34:49.444Z,86.08
2018-01-26T23:37:17.850Z,86.28
2018-01-26T23:39:46.305Z,86.37
2018-01-26T23:42:14.706Z,86.50
2018-01-26T23:44:43.107Z,86.57
2018-01-26T23:47:11.587Z,86.33
2018-01-26T23:49:39.997Z,86.27
2018-01-26T23:52:08.412Z,86.44
2018-01-26T23:54:36.878Z,86.16
2018-01-26T23:57:05.305Z,86.23
2018-01-26T23:59:33.712Z,86.54
